sensor_id;sensor_type;location;lat;lon;timestamp;P1;durP1;ratioP1;P2;durP2;ratioP2
4563;SDS011;2294;51.818;8.484;2022-08-02T00:01:42;7.10;;;6.17;;
4563;SDS011;2294;51.818;8.484;2022-08-02T00:04:09;7.33;;;5.33;;
4563;SDS011;2294;51.818;8.484;2022-08-02T00:06:37;9.57;;;5.93;;
4563;SDS011;2294;51.818;8.484;2022-08-02T00:09:05;7.37;;;5.17;;
4563;SDS011;2294;51.818;8.484;2022-08-02T00:11:32;9.73;;;5.50;;
4563;SDS011;2294;51.818;8.484;2022-08-02T00:13:59;5.77;;;4.80;;
4563;SDS011;2294;51.818;8.484;2022-08-02T00:16:26;7.40;;;5.63;;
4563;SDS011;2294;51.818;8.484;2022-08-02T00:18:53;12.07;;;4.77;;
4563;SDS011;2294;51.818;8.484;2022-08-02T00:21:20;9.07;;;5.10;;
4563;SDS011;2294;51.818;8.484;2022-08-02T00:23:47;19.93;;;5.90;;
4563;SDS011;2294;51.818;8.484;2022-08-02T00:26:15;6.50;;;5.33;;
4563;SDS011;2294;51.818;8.484;2022-08-02T00:28:42;8.13;;;5.97;;
4563;SDS011;2294;51.818;8.484;2022-08-02T00:31:09;19.50;;;5.63;;
4563;SDS011;2294;51.818;8.484;2022-08-02T00:33:36;9.17;;;6.33;;
4563;SDS011;2294;51.818;8.484;2022-08-02T00:36:03;13.53;;;5.97;;
4563;SDS011;2294;51.818;8.484;2022-08-02T00:38:30;7.10;;;5.40;;
4563;SDS011;2294;51.818;8.484;2022-08-02T00:40:57;11.97;;;5.60;;
4563;SDS011;2294;51.818;8.484;2022-08-02T00:43:25;6.97;;;5.60;;
4563;SDS011;2294;51.818;8.484;2022-08-02T00:45:52;8.17;;;6.57;;
4563;SDS011;2294;51.818;8.484;2022-08-02T00:48:19;8.13;;;5.47;;
4563;SDS011;2294;51.818;8.484;2022-08-02T00:50:46;8.23;;;5.03;;
4563;SDS011;2294;51.818;8.484;2022-08-02T00:53:13;7.90;;;5.33;;
4563;SDS011;2294;51.818;8.484;2022-08-02T00:55:40;5.30;;;4.80;;
4563;SDS011;2294;51.818;8.484;2022-08-02T00:58:07;12.37;;;5.00;;
4563;SDS011;2294;51.818;8.484;2022-08-02T01:00:35;10.43;;;5.90;;
4563;SDS011;2294;51.818;8.484;2022-08-02T01:03:02;10.73;;;6.20;;
4563;SDS011;2294;51.818;8.484;2022-08-02T01:05:29;8.37;;;5.73;;
4563;SDS011;2294;51.818;8.484;2022-08-02T01:07:56;8.87;;;5.37;;
4563;SDS011;2294;51.818;8.484;2022-08-02T01:10:23;9.47;;;6.10;;
4563;SDS011;2294;51.818;8.484;2022-08-02T01:12:50;7.50;;;5.37;;
4563;SDS011;2294;51.818;8.484;2022-08-02T01:15:17;8.53;;;4.93;;
4563;SDS011;2294;51.818;8.484;2022-08-02T01:17:48;9.50;;;5.53;;
4563;SDS011;2294;51.818;8.484;2022-08-02T01:20:29;8.90;;;4.90;;
4563;SDS011;2294;51.818;8.484;2022-08-02T01:23:19;8.83;;;5.77;;
4563;SDS011;2294;51.818;8.484;2022-08-02T01:26:02;7.17;;;5.33;;
4563;SDS011;2294;51.818;8.484;2022-08-02T01:28:51;13.37;;;7.33;;
4563;SDS011;2294;51.818;8.484;2022-08-02T01:31:24;11.70;;;6.23;;
4563;SDS011;2294;51.818;8.484;2022-08-02T01:33:56;7.40;;;5.33;;
4563;SDS011;2294;51.818;8.484;2022-08-02T01:36:28;10.30;;;6.50;;
4563;SDS011;2294;51.818;8.484;2022-08-02T01:39:01;6.23;;;5.60;;
4563;SDS011;2294;51.818;8.484;2022-08-02T01:41:29;7.73;;;5.23;;
4563;SDS011;2294;51.818;8.484;2022-08-02T01:43:59;8.37;;;4.90;;
4563;SDS011;2294;51.818;8.484;2022-08-02T01:46:28;8.40;;;5.50;;
4563;SDS011;2294;51.818;8.484;2022-08-02T01:48:56;8.63;;;5.13;;
4563;SDS011;2294;51.818;8.484;2022-08-02T01:51:26;11.37;;;4.97;;
4563;SDS011;2294;51.818;8.484;2022-08-02T01:54:12;6.83;;;5.67;;
4563;SDS011;2294;51.818;8.484;2022-08-02T01:56:41;13.20;;;5.00;;
4563;SDS011;2294;51.818;8.484;2022-08-02T01:59:12;5.93;;;4.93;;
4563;SDS011;2294;51.818;8.484;2022-08-02T02:01:41;5.73;;;4.57;;
4563;SDS011;2294;51.818;8.484;2022-08-02T02:04:11;6.33;;;4.60;;
4563;SDS011;2294;51.818;8.484;2022-08-02T02:06:41;7.77;;;5.97;;
4563;SDS011;2294;51.818;8.484;2022-08-02T02:09:09;5.90;;;5.37;;
4563;SDS011;2294;51.818;8.484;2022-08-02T02:11:37;6.63;;;4.93;;
4563;SDS011;2294;51.818;8.484;2022-08-02T02:14:07;4.90;;;4.37;;
4563;SDS011;2294;51.818;8.484;2022-08-02T02:16:37;10.73;;;5.13;;
4563;SDS011;2294;51.818;8.484;2022-08-02T02:19:09;8.23;;;5.30;;
4563;SDS011;2294;51.818;8.484;2022-08-02T02:21:40;8.90;;;4.60;;
4563;SDS011;2294;51.818;8.484;2022-08-02T02:24:07;6.73;;;4.70;;
4563;SDS011;2294;51.818;8.484;2022-08-02T02:26:34;12.77;;;5.60;;
4563;SDS011;2294;51.818;8.484;2022-08-02T02:29:03;5.60;;;4.97;;
4563;SDS011;2294;51.818;8.484;2022-08-02T02:31:34;5.87;;;4.90;;
4563;SDS011;2294;51.818;8.484;2022-08-02T02:34:09;8.20;;;4.53;;
4563;SDS011;2294;51.818;8.484;2022-08-02T02:36:39;5.80;;;5.00;;
4563;SDS011;2294;51.818;8.484;2022-08-02T02:39:10;6.70;;;5.20;;
4563;SDS011;2294;51.818;8.484;2022-08-02T02:41:39;5.73;;;4.50;;
4563;SDS011;2294;51.818;8.484;2022-08-02T02:44:08;5.97;;;5.40;;
4563;SDS011;2294;51.818;8.484;2022-08-02T02:46:38;15.93;;;5.37;;
4563;SDS011;2294;51.818;8.484;2022-08-02T02:49:07;9.10;;;4.40;;
4563;SDS011;2294;51.818;8.484;2022-08-02T02:51:38;7.70;;;5.03;;
4563;SDS011;2294;51.818;8.484;2022-08-02T02:54:06;5.67;;;5.07;;
4563;SDS011;2294;51.818;8.484;2022-08-02T02:56:36;7.07;;;4.80;;
4563;SDS011;2294;51.818;8.484;2022-08-02T02:59:04;5.40;;;4.73;;
4563;SDS011;2294;51.818;8.484;2022-08-02T03:01:33;6.77;;;4.93;;
4563;SDS011;2294;51.818;8.484;2022-08-02T03:04:01;5.70;;;5.10;;
4563;SDS011;2294;51.818;8.484;2022-08-02T03:06:33;8.70;;;5.03;;
4563;SDS011;2294;51.818;8.484;2022-08-02T03:09:01;8.77;;;4.87;;
4563;SDS011;2294;51.818;8.484;2022-08-02T03:11:29;10.17;;;4.80;;
4563;SDS011;2294;51.818;8.484;2022-08-02T03:13:56;9.13;;;5.77;;
4563;SDS011;2294;51.818;8.484;2022-08-02T03:16:23;5.93;;;5.20;;
4563;SDS011;2294;51.818;8.484;2022-08-02T03:18:52;6.93;;;5.50;;
4563;SDS011;2294;51.818;8.484;2022-08-02T03:21:20;8.33;;;5.50;;
4563;SDS011;2294;51.818;8.484;2022-08-02T03:23:48;9.37;;;5.70;;
4563;SDS011;2294;51.818;8.484;2022-08-02T03:26:15;6.60;;;5.57;;
4563;SDS011;2294;51.818;8.484;2022-08-02T03:28:42;12.83;;;5.57;;
4563;SDS011;2294;51.818;8.484;2022-08-02T03:31:09;9.43;;;5.10;;
4563;SDS011;2294;51.818;8.484;2022-08-02T03:33:37;8.30;;;5.37;;
4563;SDS011;2294;51.818;8.484;2022-08-02T03:36:06;5.80;;;5.30;;
4563;SDS011;2294;51.818;8.484;2022-08-02T03:38:36;7.53;;;5.60;;
4563;SDS011;2294;51.818;8.484;2022-08-02T03:41:05;7.90;;;5.53;;
4563;SDS011;2294;51.818;8.484;2022-08-02T03:43:34;8.07;;;6.07;;
4563;SDS011;2294;51.818;8.484;2022-08-02T03:46:02;6.27;;;5.60;;
4563;SDS011;2294;51.818;8.484;2022-08-02T03:48:30;19.87;;;5.47;;
4563;SDS011;2294;51.818;8.484;2022-08-02T03:50:58;6.03;;;5.13;;
4563;SDS011;2294;51.818;8.484;2022-08-02T03:53:25;8.53;;;4.90;;
4563;SDS011;2294;51.818;8.484;2022-08-02T03:55:53;6.10;;;5.20;;
4563;SDS011;2294;51.818;8.484;2022-08-02T03:58:22;14.43;;;6.60;;
4563;SDS011;2294;51.818;8.484;2022-08-02T04:00:50;9.27;;;5.53;;
4563;SDS011;2294;51.818;8.484;2022-08-02T04:03:18;6.07;;;4.80;;
4563;SDS011;2294;51.818;8.484;2022-08-02T04:05:45;5.77;;;5.17;;
4563;SDS011;2294;51.818;8.484;2022-08-02T04:08:12;10.07;;;6.43;;
4563;SDS011;2294;51.818;8.484;2022-08-02T04:10:39;8.10;;;4.30;;
4563;SDS011;2294;51.818;8.484;2022-08-02T04:13:25;5.50;;;4.90;;
4563;SDS011;2294;51.818;8.484;2022-08-02T04:15:54;8.43;;;5.87;;
4563;SDS011;2294;51.818;8.484;2022-08-02T04:18:25;9.70;;;5.27;;
4563;SDS011;2294;51.818;8.484;2022-08-02T04:20:57;12.80;;;6.63;;
4563;SDS011;2294;51.818;8.484;2022-08-02T04:23:27;5.67;;;4.60;;
4563;SDS011;2294;51.818;8.484;2022-08-02T04:25:56;6.20;;;5.30;;
4563;SDS011;2294;51.818;8.484;2022-08-02T04:28:26;6.77;;;5.03;;
4563;SDS011;2294;51.818;8.484;2022-08-02T04:30:54;6.87;;;4.93;;
4563;SDS011;2294;51.818;8.484;2022-08-02T04:33:22;7.53;;;5.57;;
4563;SDS011;2294;51.818;8.484;2022-08-02T04:35:50;7.33;;;5.77;;
4563;SDS011;2294;51.818;8.484;2022-08-02T04:38:17;8.67;;;5.50;;
4563;SDS011;2294;51.818;8.484;2022-08-02T04:40:51;9.63;;;5.90;;
4563;SDS011;2294;51.818;8.484;2022-08-02T04:43:19;7.60;;;5.50;;
4563;SDS011;2294;51.818;8.484;2022-08-02T04:45:48;6.90;;;5.77;;
4563;SDS011;2294;51.818;8.484;2022-08-02T04:48:17;9.77;;;5.50;;
4563;SDS011;2294;51.818;8.484;2022-08-02T04:50:44;15.00;;;6.83;;
4563;SDS011;2294;51.818;8.484;2022-08-02T04:53:11;7.80;;;6.00;;
4563;SDS011;2294;51.818;8.484;2022-08-02T04:55:38;11.90;;;5.20;;
4563;SDS011;2294;51.818;8.484;2022-08-02T04:58:04;10.97;;;6.00;;
4563;SDS011;2294;51.818;8.484;2022-08-02T05:00:31;9.10;;;6.10;;
4563;SDS011;2294;51.818;8.484;2022-08-02T05:03:00;13.40;;;6.37;;
4563;SDS011;2294;51.818;8.484;2022-08-02T05:05:27;7.83;;;6.00;;
4563;SDS011;2294;51.818;8.484;2022-08-02T05:07:54;7.20;;;5.67;;
4563;SDS011;2294;51.818;8.484;2022-08-02T05:10:22;10.37;;;6.70;;
4563;SDS011;2294;51.818;8.484;2022-08-02T05:12:49;12.23;;;6.57;;
4563;SDS011;2294;51.818;8.484;2022-08-02T05:15:16;12.30;;;8.20;;
4563;SDS011;2294;51.818;8.484;2022-08-02T05:17:43;8.60;;;6.67;;
4563;SDS011;2294;51.818;8.484;2022-08-02T05:20:12;16.10;;;7.83;;
4563;SDS011;2294;51.818;8.484;2022-08-02T05:22:40;7.97;;;6.90;;
4563;SDS011;2294;51.818;8.484;2022-08-02T05:25:07;11.30;;;7.50;;
4563;SDS011;2294;51.818;8.484;2022-08-02T05:27:35;12.07;;;8.23;;
4563;SDS011;2294;51.818;8.484;2022-08-02T05:30:02;14.47;;;9.10;;
4563;SDS011;2294;51.818;8.484;2022-08-02T05:32:30;9.83;;;8.63;;
4563;SDS011;2294;51.818;8.484;2022-08-02T05:34:58;12.83;;;9.10;;
4563;SDS011;2294;51.818;8.484;2022-08-02T05:37:28;9.70;;;8.60;;
4563;SDS011;2294;51.818;8.484;2022-08-02T05:39:55;11.37;;;9.63;;
4563;SDS011;2294;51.818;8.484;2022-08-02T05:42:22;11.60;;;9.20;;
4563;SDS011;2294;51.818;8.484;2022-08-02T05:44:49;12.97;;;9.33;;
4563;SDS011;2294;51.818;8.484;2022-08-02T05:47:16;12.00;;;9.57;;
4563;SDS011;2294;51.818;8.484;2022-08-02T05:49:43;16.60;;;8.30;;
4563;SDS011;2294;51.818;8.484;2022-08-02T05:52:13;15.70;;;9.70;;
4563;SDS011;2294;51.818;8.484;2022-08-02T05:54:46;12.17;;;8.67;;
4563;SDS011;2294;51.818;8.484;2022-08-02T05:57:16;12.10;;;8.87;;
4563;SDS011;2294;51.818;8.484;2022-08-02T05:59:55;9.90;;;8.90;;
4563;SDS011;2294;51.818;8.484;2022-08-02T06:02:29;13.83;;;10.20;;
4563;SDS011;2294;51.818;8.484;2022-08-02T06:05:09;15.13;;;9.43;;
4563;SDS011;2294;51.818;8.484;2022-08-02T06:07:39;12.10;;;10.40;;
4563;SDS011;2294;51.818;8.484;2022-08-02T06:10:11;15.60;;;11.00;;
4563;SDS011;2294;51.818;8.484;2022-08-02T06:12:40;14.50;;;9.77;;
4563;SDS011;2294;51.818;8.484;2022-08-02T06:15:12;13.53;;;10.00;;
4563;SDS011;2294;51.818;8.484;2022-08-02T06:17:40;13.00;;;10.77;;
4563;SDS011;2294;51.818;8.484;2022-08-02T06:20:08;17.43;;;10.10;;
4563;SDS011;2294;51.818;8.484;2022-08-02T06:22:36;11.77;;;10.40;;
4563;SDS011;2294;51.818;8.484;2022-08-02T06:25:07;13.00;;;10.40;;
4563;SDS011;2294;51.818;8.484;2022-08-02T06:27:36;11.57;;;9.87;;
4563;SDS011;2294;51.818;8.484;2022-08-02T06:30:05;15.60;;;9.53;;
4563;SDS011;2294;51.818;8.484;2022-08-02T06:32:33;16.50;;;10.03;;
4563;SDS011;2294;51.818;8.484;2022-08-02T06:35:01;23.77;;;10.87;;
4563;SDS011;2294;51.818;8.484;2022-08-02T06:37:30;12.43;;;11.10;;
4563;SDS011;2294;51.818;8.484;2022-08-02T06:40:04;15.67;;;10.70;;
4563;SDS011;2294;51.818;8.484;2022-08-02T06:42:40;16.17;;;10.97;;
4563;SDS011;2294;51.818;8.484;2022-08-02T06:45:16;16.80;;;12.07;;
4563;SDS011;2294;51.818;8.484;2022-08-02T06:47:43;13.30;;;11.23;;
4563;SDS011;2294;51.818;8.484;2022-08-02T06:50:10;17.43;;;11.80;;
4563;SDS011;2294;51.818;8.484;2022-08-02T06:52:37;14.00;;;10.10;;
4563;SDS011;2294;51.818;8.484;2022-08-02T06:55:05;19.33;;;12.10;;
4563;SDS011;2294;51.818;8.484;2022-08-02T06:57:32;17.13;;;10.83;;
4563;SDS011;2294;51.818;8.484;2022-08-02T07:00:03;19.70;;;11.03;;
4563;SDS011;2294;51.818;8.484;2022-08-02T07:02:33;17.83;;;10.67;;
4563;SDS011;2294;51.818;8.484;2022-08-02T07:05:00;18.30;;;10.93;;
4563;SDS011;2294;51.818;8.484;2022-08-02T07:07:28;13.80;;;11.10;;
4563;SDS011;2294;51.818;8.484;2022-08-02T07:09:56;17.67;;;11.17;;
4563;SDS011;2294;51.818;8.484;2022-08-02T07:12:23;15.80;;;11.20;;
4563;SDS011;2294;51.818;8.484;2022-08-02T07:14:51;20.53;;;12.90;;
4563;SDS011;2294;51.818;8.484;2022-08-02T07:17:19;16.50;;;10.33;;
4563;SDS011;2294;51.818;8.484;2022-08-02T07:19:46;14.43;;;11.10;;
4563;SDS011;2294;51.818;8.484;2022-08-02T07:22:13;13.97;;;10.37;;
4563;SDS011;2294;51.818;8.484;2022-08-02T07:24:41;14.07;;;10.97;;
4563;SDS011;2294;51.818;8.484;2022-08-02T07:27:09;13.07;;;10.00;;
4563;SDS011;2294;51.818;8.484;2022-08-02T07:29:36;15.13;;;10.23;;
4563;SDS011;2294;51.818;8.484;2022-08-02T07:32:03;13.73;;;9.77;;
4563;SDS011;2294;51.818;8.484;2022-08-02T07:34:31;14.47;;;10.47;;
4563;SDS011;2294;51.818;8.484;2022-08-02T07:36:58;19.63;;;10.50;;
4563;SDS011;2294;51.818;8.484;2022-08-02T07:39:25;10.40;;;9.30;;
4563;SDS011;2294;51.818;8.484;2022-08-02T07:41:52;15.03;;;10.07;;
4563;SDS011;2294;51.818;8.484;2022-08-02T07:44:19;11.70;;;10.07;;
4563;SDS011;2294;51.818;8.484;2022-08-02T07:46:47;17.53;;;9.47;;
4563;SDS011;2294;51.818;8.484;2022-08-02T07:49:14;19.77;;;10.47;;
4563;SDS011;2294;51.818;8.484;2022-08-02T07:51:44;14.70;;;10.50;;
4563;SDS011;2294;51.818;8.484;2022-08-02T07:54:11;11.37;;;9.17;;
4563;SDS011;2294;51.818;8.484;2022-08-02T07:56:38;17.90;;;11.47;;
4563;SDS011;2294;51.818;8.484;2022-08-02T07:59:05;12.40;;;10.40;;
4563;SDS011;2294;51.818;8.484;2022-08-02T08:01:34;13.47;;;10.60;;
4563;SDS011;2294;51.818;8.484;2022-08-02T08:04:01;10.63;;;8.70;;
4563;SDS011;2294;51.818;8.484;2022-08-02T08:06:28;12.90;;;8.70;;
4563;SDS011;2294;51.818;8.484;2022-08-02T08:08:57;16.53;;;10.13;;
4563;SDS011;2294;51.818;8.484;2022-08-02T08:11:24;11.17;;;9.00;;
4563;SDS011;2294;51.818;8.484;2022-08-02T08:13:51;16.73;;;7.90;;
4563;SDS011;2294;51.818;8.484;2022-08-02T08:16:18;10.60;;;8.00;;
4563;SDS011;2294;51.818;8.484;2022-08-02T08:18:45;17.83;;;8.07;;
4563;SDS011;2294;51.818;8.484;2022-08-02T08:21:12;11.13;;;8.73;;
4563;SDS011;2294;51.818;8.484;2022-08-02T08:23:39;13.83;;;8.40;;
4563;SDS011;2294;51.818;8.484;2022-08-02T08:26:07;9.37;;;8.43;;
4563;SDS011;2294;51.818;8.484;2022-08-02T08:28:34;9.97;;;7.23;;
4563;SDS011;2294;51.818;8.484;2022-08-02T08:31:01;12.37;;;8.33;;
4563;SDS011;2294;51.818;8.484;2022-08-02T08:33:28;10.20;;;7.73;;
4563;SDS011;2294;51.818;8.484;2022-08-02T08:35:55;18.17;;;8.87;;
4563;SDS011;2294;51.818;8.484;2022-08-02T08:38:22;13.93;;;8.00;;
4563;SDS011;2294;51.818;8.484;2022-08-02T08:40:49;9.63;;;6.20;;
4563;SDS011;2294;51.818;8.484;2022-08-02T08:43:18;14.03;;;7.63;;
4563;SDS011;2294;51.818;8.484;2022-08-02T08:45:45;6.77;;;5.20;;
4563;SDS011;2294;51.818;8.484;2022-08-02T08:48:13;8.63;;;5.77;;
4563;SDS011;2294;51.818;8.484;2022-08-02T08:50:44;13.63;;;6.57;;
4563;SDS011;2294;51.818;8.484;2022-08-02T08:53:13;12.40;;;6.77;;
4563;SDS011;2294;51.818;8.484;2022-08-02T08:55:41;11.10;;;5.77;;
4563;SDS011;2294;51.818;8.484;2022-08-02T08:58:09;6.40;;;5.73;;
4563;SDS011;2294;51.818;8.484;2022-08-02T09:00:39;14.13;;;5.47;;
4563;SDS011;2294;51.818;8.484;2022-08-02T09:03:06;9.40;;;6.17;;
4563;SDS011;2294;51.818;8.484;2022-08-02T09:05:34;6.20;;;4.23;;
4563;SDS011;2294;51.818;8.484;2022-08-02T09:08:03;6.80;;;4.40;;
4563;SDS011;2294;51.818;8.484;2022-08-02T09:10:32;11.67;;;5.27;;
4563;SDS011;2294;51.818;8.484;2022-08-02T09:15:54;4.43;;;3.53;;
4563;SDS011;2294;51.818;8.484;2022-08-02T09:18:28;6.43;;;4.30;;
4563;SDS011;2294;51.818;8.484;2022-08-02T09:20:56;10.30;;;4.60;;
4563;SDS011;2294;51.818;8.484;2022-08-02T09:23:24;6.30;;;4.20;;
4563;SDS011;2294;51.818;8.484;2022-08-02T09:25:55;7.33;;;4.03;;
4563;SDS011;2294;51.818;8.484;2022-08-02T09:28:26;5.63;;;4.43;;
4563;SDS011;2294;51.818;8.484;2022-08-02T09:30:57;5.80;;;4.10;;
4563;SDS011;2294;51.818;8.484;2022-08-02T09:33:29;6.90;;;4.03;;
4563;SDS011;2294;51.818;8.484;2022-08-02T09:36:00;8.50;;;4.27;;
4563;SDS011;2294;51.818;8.484;2022-08-02T09:38:28;6.20;;;3.87;;
4563;SDS011;2294;51.818;8.484;2022-08-02T09:40:55;8.90;;;3.97;;
4563;SDS011;2294;51.818;8.484;2022-08-02T09:43:38;11.70;;;3.70;;
4563;SDS011;2294;51.818;8.484;2022-08-02T09:46:11;4.17;;;3.73;;
4563;SDS011;2294;51.818;8.484;2022-08-02T09:48:47;4.23;;;2.63;;
4563;SDS011;2294;51.818;8.484;2022-08-02T09:51:18;6.30;;;3.93;;
4563;SDS011;2294;51.818;8.484;2022-08-02T09:53:50;4.80;;;3.07;;
4563;SDS011;2294;51.818;8.484;2022-08-02T09:56:19;5.03;;;3.50;;
4563;SDS011;2294;51.818;8.484;2022-08-02T09:58:47;6.83;;;3.50;;
4563;SDS011;2294;51.818;8.484;2022-08-02T10:01:18;4.97;;;3.33;;
4563;SDS011;2294;51.818;8.484;2022-08-02T10:03:52;5.87;;;3.10;;
4563;SDS011;2294;51.818;8.484;2022-08-02T10:06:21;6.67;;;3.37;;
4563;SDS011;2294;51.818;8.484;2022-08-02T10:08:48;2.90;;;2.60;;
4563;SDS011;2294;51.818;8.484;2022-08-02T10:11:17;4.30;;;3.00;;
4563;SDS011;2294;51.818;8.484;2022-08-02T10:13:44;8.40;;;2.63;;
4563;SDS011;2294;51.818;8.484;2022-08-02T10:16:13;2.37;;;2.13;;
4563;SDS011;2294;51.818;8.484;2022-08-02T10:18:42;5.03;;;2.30;;
4563;SDS011;2294;51.818;8.484;2022-08-02T10:21:11;2.30;;;2.10;;
4563;SDS011;2294;51.818;8.484;2022-08-02T10:23:41;4.50;;;2.53;;
4563;SDS011;2294;51.818;8.484;2022-08-02T10:26:12;2.40;;;2.20;;
4563;SDS011;2294;51.818;8.484;2022-08-02T10:28:41;4.03;;;2.20;;
4563;SDS011;2294;51.818;8.484;2022-08-02T10:31:11;4.90;;;2.47;;
4563;SDS011;2294;51.818;8.484;2022-08-02T10:33:44;6.73;;;1.97;;
4563;SDS011;2294;51.818;8.484;2022-08-02T10:36:13;6.80;;;2.50;;
4563;SDS011;2294;51.818;8.484;2022-08-02T10:38:40;7.97;;;3.50;;
4563;SDS011;2294;51.818;8.484;2022-08-02T10:41:09;2.93;;;1.93;;
4563;SDS011;2294;51.818;8.484;2022-08-02T10:43:41;2.97;;;2.20;;
4563;SDS011;2294;51.818;8.484;2022-08-02T10:46:22;3.93;;;2.57;;
4563;SDS011;2294;51.818;8.484;2022-08-02T10:52:03;5.10;;;2.20;;
4563;SDS011;2294;51.818;8.484;2022-08-02T10:54:32;1.90;;;1.70;;
4563;SDS011;2294;51.818;8.484;2022-08-02T10:57:01;5.90;;;2.20;;
4563;SDS011;2294;51.818;8.484;2022-08-02T10:59:38;3.83;;;2.03;;
4563;SDS011;2294;51.818;8.484;2022-08-02T11:02:05;2.93;;;2.17;;
4563;SDS011;2294;51.818;8.484;2022-08-02T11:07:30;2.00;;;1.80;;
4563;SDS011;2294;51.818;8.484;2022-08-02T11:09:58;2.80;;;1.70;;
4563;SDS011;2294;51.818;8.484;2022-08-02T11:12:57;2.23;;;1.83;;
4563;SDS011;2294;51.818;8.484;2022-08-02T11:15:25;4.70;;;2.40;;
4563;SDS011;2294;51.818;8.484;2022-08-02T11:17:52;4.30;;;2.60;;
4563;SDS011;2294;51.818;8.484;2022-08-02T11:20:22;4.60;;;2.70;;
4563;SDS011;2294;51.818;8.484;2022-08-02T11:22:50;5.93;;;2.10;;
4563;SDS011;2294;51.818;8.484;2022-08-02T11:28:07;3.87;;;1.80;;
4563;SDS011;2294;51.818;8.484;2022-08-02T11:30:36;2.73;;;2.30;;
4563;SDS011;2294;51.818;8.484;2022-08-02T11:33:04;4.47;;;2.10;;
4563;SDS011;2294;51.818;8.484;2022-08-02T11:35:34;3.80;;;2.00;;
4563;SDS011;2294;51.818;8.484;2022-08-02T11:38:12;2.13;;;1.83;;
4563;SDS011;2294;51.818;8.484;2022-08-02T11:40:43;2.43;;;1.87;;
4563;SDS011;2294;51.818;8.484;2022-08-02T11:43:14;2.80;;;1.53;;
4563;SDS011;2294;51.818;8.484;2022-08-02T11:45:46;2.90;;;2.10;;
4563;SDS011;2294;51.818;8.484;2022-08-02T11:48:21;7.53;;;2.30;;
4563;SDS011;2294;51.818;8.484;2022-08-02T11:51:04;5.23;;;2.27;;
4563;SDS011;2294;51.818;8.484;2022-08-02T11:53:41;2.90;;;2.20;;
4563;SDS011;2294;51.818;8.484;2022-08-02T11:56:10;1.97;;;1.77;;
4563;SDS011;2294;51.818;8.484;2022-08-02T11:58:37;6.90;;;1.73;;
4563;SDS011;2294;51.818;8.484;2022-08-02T12:01:04;4.60;;;2.00;;
4563;SDS011;2294;51.818;8.484;2022-08-02T12:03:33;5.43;;;2.20;;
4563;SDS011;2294;51.818;8.484;2022-08-02T12:06:01;2.30;;;2.10;;
4563;SDS011;2294;51.818;8.484;2022-08-02T12:08:31;2.47;;;2.10;;
4563;SDS011;2294;51.818;8.484;2022-08-02T12:10:59;2.67;;;2.07;;
4563;SDS011;2294;51.818;8.484;2022-08-02T12:13:27;4.43;;;2.30;;
4563;SDS011;2294;51.818;8.484;2022-08-02T12:16:08;5.00;;;1.90;;
4563;SDS011;2294;51.818;8.484;2022-08-02T12:18:50;3.00;;;2.43;;
4563;SDS011;2294;51.818;8.484;2022-08-02T12:21:34;9.50;;;2.17;;
4563;SDS011;2294;51.818;8.484;2022-08-02T12:24:03;3.03;;;2.00;;
4563;SDS011;2294;51.818;8.484;2022-08-02T12:26:39;2.27;;;2.00;;
4563;SDS011;2294;51.818;8.484;2022-08-02T12:29:07;5.47;;;2.73;;
4563;SDS011;2294;51.818;8.484;2022-08-02T12:31:39;7.73;;;2.30;;
4563;SDS011;2294;51.818;8.484;2022-08-02T12:34:11;4.87;;;2.83;;
4563;SDS011;2294;51.818;8.484;2022-08-02T12:36:41;2.50;;;2.07;;
4563;SDS011;2294;51.818;8.484;2022-08-02T12:39:11;2.23;;;2.00;;
4563;SDS011;2294;51.818;8.484;2022-08-02T12:41:39;2.47;;;1.97;;
4563;SDS011;2294;51.818;8.484;2022-08-02T12:44:13;4.40;;;2.40;;
4563;SDS011;2294;51.818;8.484;2022-08-02T12:46:41;2.20;;;2.00;;
4563;SDS011;2294;51.818;8.484;2022-08-02T12:49:14;2.30;;;1.97;;
4563;SDS011;2294;51.818;8.484;2022-08-02T12:51:42;6.80;;;2.23;;
4563;SDS011;2294;51.818;8.484;2022-08-02T12:54:13;3.10;;;2.17;;
4563;SDS011;2294;51.818;8.484;2022-08-02T12:56:43;5.60;;;1.93;;
4563;SDS011;2294;51.818;8.484;2022-08-02T12:59:10;2.27;;;1.90;;
4563;SDS011;2294;51.818;8.484;2022-08-02T13:01:37;2.73;;;1.90;;
4563;SDS011;2294;51.818;8.484;2022-08-02T13:04:05;6.20;;;2.00;;
4563;SDS011;2294;51.818;8.484;2022-08-02T13:06:32;5.30;;;2.00;;
4563;SDS011;2294;51.818;8.484;2022-08-02T13:09:00;2.63;;;1.80;;
4563;SDS011;2294;51.818;8.484;2022-08-02T13:11:37;3.23;;;1.60;;
4563;SDS011;2294;51.818;8.484;2022-08-02T13:14:04;5.07;;;1.80;;
4563;SDS011;2294;51.818;8.484;2022-08-02T13:16:31;2.67;;;1.70;;
4563;SDS011;2294;51.818;8.484;2022-08-02T13:18:58;2.20;;;1.60;;
4563;SDS011;2294;51.818;8.484;2022-08-02T13:21:25;1.83;;;1.73;;
4563;SDS011;2294;51.818;8.484;2022-08-02T13:23:52;2.30;;;1.70;;
4563;SDS011;2294;51.818;8.484;2022-08-02T13:26:19;2.03;;;1.90;;
4563;SDS011;2294;51.818;8.484;2022-08-02T13:28:47;2.53;;;1.50;;
4563;SDS011;2294;51.818;8.484;2022-08-02T13:31:14;2.93;;;2.00;;
4563;SDS011;2294;51.818;8.484;2022-08-02T13:33:41;3.00;;;2.20;;
4563;SDS011;2294;51.818;8.484;2022-08-02T13:36:08;3.83;;;2.00;;
4563;SDS011;2294;51.818;8.484;2022-08-02T13:38:34;2.40;;;1.87;;
4563;SDS011;2294;51.818;8.484;2022-08-02T13:41:01;2.07;;;1.87;;
4563;SDS011;2294;51.818;8.484;2022-08-02T13:43:34;6.13;;;1.80;;
4563;SDS011;2294;51.818;8.484;2022-08-02T13:46:04;4.37;;;2.17;;
4563;SDS011;2294;51.818;8.484;2022-08-02T13:48:31;2.90;;;2.07;;
4563;SDS011;2294;51.818;8.484;2022-08-02T13:50:59;2.10;;;1.90;;
4563;SDS011;2294;51.818;8.484;2022-08-02T13:53:26;2.57;;;2.10;;
4563;SDS011;2294;51.818;8.484;2022-08-02T13:55:54;2.93;;;1.97;;
4563;SDS011;2294;51.818;8.484;2022-08-02T13:58:22;2.93;;;1.90;;
4563;SDS011;2294;51.818;8.484;2022-08-02T14:00:49;2.57;;;2.17;;
4563;SDS011;2294;51.818;8.484;2022-08-02T14:03:18;1.90;;;1.80;;
4563;SDS011;2294;51.818;8.484;2022-08-02T14:05:44;4.00;;;2.30;;
4563;SDS011;2294;51.818;8.484;2022-08-02T14:08:11;2.60;;;1.93;;
4563;SDS011;2294;51.818;8.484;2022-08-02T14:10:39;2.17;;;1.87;;
4563;SDS011;2294;51.818;8.484;2022-08-02T14:13:06;4.40;;;2.00;;
4563;SDS011;2294;51.818;8.484;2022-08-02T14:15:33;3.13;;;2.10;;
4563;SDS011;2294;51.818;8.484;2022-08-02T14:18:00;3.77;;;2.30;;
4563;SDS011;2294;51.818;8.484;2022-08-02T14:20:28;3.50;;;2.20;;
4563;SDS011;2294;51.818;8.484;2022-08-02T14:22:55;6.43;;;2.23;;
4563;SDS011;2294;51.818;8.484;2022-08-02T14:25:22;2.90;;;1.93;;
4563;SDS011;2294;51.818;8.484;2022-08-02T14:27:50;1.93;;;1.73;;
4563;SDS011;2294;51.818;8.484;2022-08-02T14:30:17;1.90;;;1.70;;
4563;SDS011;2294;51.818;8.484;2022-08-02T14:32:43;2.03;;;1.70;;
4563;SDS011;2294;51.818;8.484;2022-08-02T14:35:10;2.90;;;1.57;;
4563;SDS011;2294;51.818;8.484;2022-08-02T14:37:39;2.80;;;1.87;;
4563;SDS011;2294;51.818;8.484;2022-08-02T14:40:06;2.40;;;1.77;;
4563;SDS011;2294;51.818;8.484;2022-08-02T14:42:33;4.50;;;2.27;;
4563;SDS011;2294;51.818;8.484;2022-08-02T14:45:00;2.63;;;1.90;;
4563;SDS011;2294;51.818;8.484;2022-08-02T14:47:27;2.70;;;2.10;;
4563;SDS011;2294;51.818;8.484;2022-08-02T14:49:54;2.77;;;2.03;;
4563;SDS011;2294;51.818;8.484;2022-08-02T14:52:21;1.70;;;1.60;;
4563;SDS011;2294;51.818;8.484;2022-08-02T14:54:49;1.67;;;1.57;;
4563;SDS011;2294;51.818;8.484;2022-08-02T14:57:16;2.83;;;1.73;;
4563;SDS011;2294;51.818;8.484;2022-08-02T14:59:43;2.90;;;1.73;;
4563;SDS011;2294;51.818;8.484;2022-08-02T15:02:11;2.73;;;2.07;;
4563;SDS011;2294;51.818;8.484;2022-08-02T15:04:38;2.40;;;1.70;;
4563;SDS011;2294;51.818;8.484;2022-08-02T15:07:05;3.90;;;2.03;;
4563;SDS011;2294;51.818;8.484;2022-08-02T15:09:32;4.00;;;2.33;;
4563;SDS011;2294;51.818;8.484;2022-08-02T15:12:00;2.00;;;1.80;;
4563;SDS011;2294;51.818;8.484;2022-08-02T15:14:27;10.23;;;2.60;;
4563;SDS011;2294;51.818;8.484;2022-08-02T15:16:54;2.70;;;1.90;;
4563;SDS011;2294;51.818;8.484;2022-08-02T15:19:21;2.50;;;2.00;;
4563;SDS011;2294;51.818;8.484;2022-08-02T15:21:48;6.47;;;1.80;;
4563;SDS011;2294;51.818;8.484;2022-08-02T15:24:15;5.73;;;1.83;;
4563;SDS011;2294;51.818;8.484;2022-08-02T15:26:42;2.03;;;1.80;;
4563;SDS011;2294;51.818;8.484;2022-08-02T15:29:10;2.20;;;2.00;;
4563;SDS011;2294;51.818;8.484;2022-08-02T15:31:37;5.57;;;2.27;;
4563;SDS011;2294;51.818;8.484;2022-08-02T15:34:04;1.77;;;1.50;;